Dewsbury, United Kingdom
Current Conditions -  °F | °C
As of 2:50 PM on Wednesday 22 Oct 2014 (Local Time) from EGNM Reporting Station
Broken Clouds Broken Clouds  
Wind Chill: 50°   Ceiling: 1000
Heat Index: 50°   Visibility: 6mi
Dew Point: 48°   Wind: 17mph
Humidity: 94%   Direction: 260°W
Pressure: 30.12"   Gusts: NA
Location:  53.69°N, 1.63°W
Report Text: EGNM 221350Z 26015KT 220V300 9999 BKN010 10/09 Q1020
Loading
Personal Weather Stations






























Interactive Weather Map
Tropical Storm Tracking
New forecast layout! Learn more

10-Day Weather Forecast

Advertisements
Track Severe Weather on mobile